Date,TemperatureHighF,TemperatureAvgF,TemperatureLowF,DewpointHighF,DewpointAvgF,DewpointLowF,HumidityHigh,HumidityAvg,HumidityLow,PressureMaxIn,PressureMinIn,WindSpeedMaxMPH,WindSpeedAvgMPH,GustSpeedMaxMPH,PrecipitationSumIn
2013-10-1,68.4,62.2,56.0,-99.9,-99.9,-99.9,0,0,100,29.97,29.89,16,1,19,0.00
2013-10-2,69.3,62.1,55.9,-99.9,-99.9,-99.9,0,0,100,29.96,29.88,13,1,17,0.00
2013-10-3,69.1,61.6,54.5,-99.9,-99.9,-99.9,0,0,100,30.02,29.91,22,3,28,0.00
2013-10-4,74.3,67.0,60.9,-99.9,-99.9,-99.9,0,0,100,30.07,29.93,16,1,31,0.00
2013-10-5,76.4,67.9,61.0,-99.9,-99.9,-99.9,0,0,100,30.17,30.07,19,0,26,0.00
2013-10-6,76.9,68.0,60.6,-99.9,-99.9,-99.9,0,0,100,30.09,29.97,11,0,16,0.00
2013-10-7,76.5,67.8,59.7,-99.9,-99.9,-99.9,0,0,100,29.97,29.85,14,0,20,0.00
2013-10-8,70.0,62.6,56.7,-99.9,-99.9,-99.9,0,0,100,29.86,29.67,14,0,22,0.00
2013-10-9,64.8,58.8,53.3,-99.9,-99.9,-99.9,0,0,100,29.71,29.56,16,0,17,0.00
2013-10-10,66.2,59.7,54.6,-99.9,-99.9,-99.9,0,0,100,29.95,29.70,9,0,17,0.00
2013-10-11,64.3,56.3,51.0,-99.9,-99.9,-99.9,0,0,100,30.01,29.92,16,0,20,0.00
2013-10-12,64.6,56.4,50.1,-99.9,-99.9,-99.9,0,0,100,29.94,29.85,12,0,18,0.00
2013-10-13,67.1,58.7,52.0,-99.9,-99.9,-99.9,0,0,100,30.02,29.85,18,1,25,0.00
2013-10-14,70.1,61.6,54.1,-99.9,-99.9,-99.9,0,0,100,30.07,29.97,15,0,20,0.00
2013-10-15,72.9,63.8,55.9,-99.9,-99.9,-99.9,0,0,100,30.02,29.93,14,0,20,0.00
2013-10-16,74.7,65.7,59.1,-99.9,-99.9,-99.9,0,0,100,30.08,29.96,11,0,21,0.00
2013-10-17,74.4,65.8,58.8,-99.9,-99.9,-99.9,0,0,100,30.06,29.95,17,0,18,0.00
2013-10-18,74.8,65.7,57.1,-99.9,-99.9,-99.9,0,0,100,30.03,29.94,11,0,14,0.00
2013-10-19,76.2,66.5,58.4,-99.9,-99.9,-99.9,0,0,100,30.06,29.97,15,0,18,0.00
2013-10-20,74.9,65.7,57.1,-99.9,-99.9,-99.9,0,0,100,29.99,29.88,20,0,22,0.00
2013-10-21,70.8,61.3,52.7,-99.9,-99.9,-99.9,0,0,100,29.96,29.88,13,0,17,0.00
2013-10-22,72.4,61.0,49.6,-99.9,-99.9,-99.9,0,0,100,29.96,29.88,15,0,16,0.00
2013-10-23,67.2,57.9,51.5,-99.9,-99.9,-99.9,0,0,100,29.91,29.84,11,0,16,0.00
2013-10-24,59.6,54.2,50.5,-99.9,-99.9,-99.9,0,0,100,30.03,29.89,13,0,15,0.00
2013-10-25,64.9,56.9,49.7,-99.9,-99.9,-99.9,0,0,100,30.10,30.03,15,0,17,0.00
2013-10-26,70.8,61.1,52.9,-99.9,-99.9,-99.9,0,0,100,30.08,29.98,0,0,0,0.00
2013-10-27,62.5,55.3,51.9,-99.9,-99.9,-99.9,0,0,100,29.98,29.57,31,4,57,0.00
2013-10-28,58.3,53.7,49.7,-99.9,-99.9,-99.9,0,0,100,29.77,29.58,38,1,38,0.00
2013-10-29,59.0,55.1,51.0,-99.9,-99.9,-99.9,0,0,100,29.98,29.77,22,0,25,0.00
2013-10-30,60.8,53.6,47.4,-99.9,-99.9,-99.9,0,0,100,30.07,29.97,0,0,0,0.00
2013-10-31,65.4,56.5,49.4,-99.9,-99.9,-99.9,0,0,100,30.10,30.01,13,0,16,0.00